Home > Products > Valid Products > TAF

000
FTUS43 KGRR 282349
TAFBTL
TAF
KBTL 282349Z 2900/2924 15007KT P6SM BKN250
     FM290300 17005KT P6SM SCT150 BKN250
     FM291200 20008KT P6SM VCSH OVC050
     FM291500 25011KT P6SM OVC040
     FM292000 27012KT P6SM SKC=



000
FTUS43 KGRR 282349
TAFGRR
TAF
KGRR 282349Z 2900/2924 13007KT P6SM BKN250
     FM290300 15005KT P6SM SCT150 BKN250
     FM291200 19008KT P6SM VCSH OVC050
     FM291500 24011KT P6SM OVC040
     FM292000 26014G22KT P6SM SKC=



000
FTUS43 KGRR 282349
TAFJXN
TAF
KJXN 282349Z 2900/2924 15006KT P6SM SCT250
     FM290300 16004KT P6SM BKN250
     FM291600 25011KT P6SM VCTS BKN035CB BKN080=



000
FTUS43 KGRR 282349
TAFLAN
TAF
KLAN 282349Z 2900/2924 14007KT P6SM BKN250
     FM290300 16004KT P6SM BKN250
     FM291200 18005KT P6SM OVC050
     FM291400 23012KT P6SM VCTS BKN035CB BKN080
     FM292200 27013KT P6SM SKC=



000
FTUS43 KGRR 282349
TAFAZO
TAF
KAZO 282349Z 2900/2924 14005KT P6SM BKN250
     FM290300 17004KT P6SM SCT150 BKN250
     FM291200 20008KT P6SM VCSH OVC050
     FM291500 25011KT P6SM OVC040
     FM292000 28012KT P6SM SKC=



000
FTUS43 KGRR 282349
TAFMKG
TAF
KMKG 282349Z 2900/2924 17004KT P6SM BKN230
     FM290100 15005KT P6SM SCT150 BKN250
     FM290900 19008KT P6SM VCSH BKN040
     FM291500 25011KT P6SM BKN040
     FM291800 25013KT P6SM SKC=



000
FTUS43 KGRR 282349
TAFJXN
TAF
KJXN 282349Z 2900/2924 15006KT P6SM SCT250
     FM290300 16004KT P6SM BKN250
     FM291600 25011KT P6SM VCTS BKN035CB BKN080=



000
FTUS43 KGRR 282349
TAFGRR
TAF
KGRR 282349Z 2900/2924 13007KT P6SM BKN250
     FM290300 15005KT P6SM SCT150 BKN250
     FM291200 19008KT P6SM VCSH OVC050
     FM291500 24011KT P6SM OVC040
     FM292000 26014G22KT P6SM SKC=



000
FTUS43 KGRR 282349
TAFMKG
TAF
KMKG 282349Z 2900/2924 17004KT P6SM BKN230
     FM290100 15005KT P6SM SCT150 BKN250
     FM290900 19008KT P6SM VCSH BKN040
     FM291500 25011KT P6SM BKN040
     FM291800 25013KT P6SM SKC=



000
FTUS43 KGRR 282349
TAFLAN
TAF
KLAN 282349Z 2900/2924 14007KT P6SM BKN250
     FM290300 16004KT P6SM BKN250
     FM291200 18005KT P6SM OVC050
     FM291400 23012KT P6SM VCTS BKN035CB BKN080
     FM292200 27013KT P6SM SKC=



000
FTUS43 KGRR 282349
TAFBTL
TAF
KBTL 282349Z 2900/2924 15007KT P6SM BKN250
     FM290300 17005KT P6SM SCT150 BKN250
     FM291200 20008KT P6SM VCSH OVC050
     FM291500 25011KT P6SM OVC040
     FM292000 27012KT P6SM SKC=



000
FTUS43 KGRR 282349
TAFAZO
TAF
KAZO 282349Z 2900/2924 14005KT P6SM BKN250
     FM290300 17004KT P6SM SCT150 BKN250
     FM291200 20008KT P6SM VCSH OVC050
     FM291500 25011KT P6SM OVC040
     FM292000 28012KT P6SM SKC=



000
FTUS43 KGRR 281743
TAFMKG
TAF
KMKG 281743Z 2818/2918 16009KT P6SM SCT160 BKN250
     FM290100 15003KT P6SM SCT150 BKN250
     FM290900 17008KT P6SM VCSH BKN040
     FM291500 25008KT P6SM OVC035=



000
FTUS43 KGRR 281743
TAFAZO
TAF
KAZO 281743Z 2818/2918 15006KT P6SM SCT160 BKN250
     FM290300 15003KT P6SM SCT250
     FM291200 18005KT 4SM BR VCSH OVC050
     FM291500 24007KT P6SM OVC035=



000
FTUS43 KGRR 281743
TAFGRR
TAF
KGRR 281743Z 2818/2918 16011KT P6SM SCT160 BKN250
     FM290300 15003KT P6SM SCT250
     FM291200 18005KT 4SM BR VCSH OVC050
     FM291500 24007KT P6SM OVC035=



000
FTUS43 KGRR 281743
TAFBTL
TAF
KBTL 281743Z 2818/2918 18006KT P6SM SCT150 BKN250
     FM290300 15003KT P6SM SCT250
     FM291200 18005KT 4SM BR VCSH OVC050
     FM291500 24007KT P6SM OVC035=



000
FTUS43 KGRR 281743
TAFLAN
TAF
KLAN 281743Z 2818/2918 16010KT P6SM SCT150 BKN250
     FM290300 15003KT P6SM SCT250
     FM291200 18005KT P6SM OVC050
     FM291400 24007KT P6SM VCTS BKN035CB BKN080=



000
FTUS43 KGRR 281743
TAFBTL
TAF
KBTL 281743Z 2818/2918 18006KT P6SM SCT150 BKN250
     FM290300 15003KT P6SM SCT250
     FM291200 18005KT 4SM BR VCSH OVC050
     FM291500 24007KT P6SM OVC035=



000
FTUS43 KGRR 281743
TAFMKG
TAF
KMKG 281743Z 2818/2918 16009KT P6SM SCT160 BKN250
     FM290100 15003KT P6SM SCT150 BKN250
     FM290900 17008KT P6SM VCSH BKN040
     FM291500 25008KT P6SM OVC035=



000
FTUS43 KGRR 281743
TAFJXN
TAF
KJXN 281743Z 2818/2918 15009KT P6SM SKC
     FM290300 15003KT P6SM SCT250
     FM291600 18005KT 4SM BR VCTS BKN035CB BKN080=



000
FTUS43 KGRR 281743
TAFGRR
TAF
KGRR 281743Z 2818/2918 16011KT P6SM SCT160 BKN250
     FM290300 15003KT P6SM SCT250
     FM291200 18005KT 4SM BR VCSH OVC050
     FM291500 24007KT P6SM OVC035=



000
FTUS43 KGRR 281743
TAFJXN
TAF
KJXN 281743Z 2818/2918 15009KT P6SM SKC
     FM290300 15003KT P6SM SCT250
     FM291600 18005KT 4SM BR VCTS BKN035CB BKN080=



000
FTUS43 KGRR 281743
TAFLAN
TAF
KLAN 281743Z 2818/2918 16010KT P6SM SCT150 BKN250
     FM290300 15003KT P6SM SCT250
     FM291200 18005KT P6SM OVC050
     FM291400 24007KT P6SM VCTS BKN035CB BKN080=



000
FTUS43 KGRR 281743
TAFAZO
TAF
KAZO 281743Z 2818/2918 15006KT P6SM SCT160 BKN250
     FM290300 15003KT P6SM SCT250
     FM291200 18005KT 4SM BR VCSH OVC050
     FM291500 24007KT P6SM OVC035=



000
FTUS43 KGRR 281152 AAA
TAFJXN
TAF AMD
KJXN 281152Z 2812/2912 13005KT P6SM SCT250
     FM290800 00000KT 3SM BR BKN250=



000
FTUS43 KGRR 281152 AAA
TAFJXN
TAF AMD
KJXN 281152Z 2812/2912 13005KT P6SM SCT250
     FM290800 00000KT 3SM BR BKN250=



000
FTUS43 KGRR 281129
TAFAZO
TAF
KAZO 281129Z 2812/2912 14005KT P6SM SCT250=



000
FTUS43 KGRR 281129
TAFLAN
TAF
KLAN 281129Z 2812/2912 13006KT P6SM SCT250=



000
FTUS43 KGRR 281129
TAFAZO
TAF
KAZO 281129Z 2812/2912 14005KT P6SM SCT250=



000
FTUS43 KGRR 281129
TAFBTL
TAF
KBTL 281129Z 2812/2912 14005KT P6SM SCT250=



000
FTUS43 KGRR 281129
TAFJXN
TAF
KJXN 281129Z 2812/2912 00000KT 1SM BR SKC
     FM281230 13005KT P6SM SCT250
     FM290800 00000KT 3SM BR BKN250=



000
FTUS43 KGRR 281129
TAFMKG
TAF
KMKG 281129Z 2812/2912 15004KT P6SM SCT250
     FM281800 23008KT P6SM SCT250
     FM290100 15003KT P6SM SCT150
     FM290900 17008KT P6SM VCSH BKN040=



000
FTUS43 KGRR 281129
TAFGRR
TAF
KGRR 281129Z 2812/2912 14006KT P6SM SCT250=



000
FTUS43 KGRR 281129
TAFLAN
TAF
KLAN 281129Z 2812/2912 13006KT P6SM SCT250=



000
FTUS43 KGRR 281129
TAFGRR
TAF
KGRR 281129Z 2812/2912 14006KT P6SM SCT250=



000
FTUS43 KGRR 281129
TAFMKG
TAF
KMKG 281129Z 2812/2912 15004KT P6SM SCT250
     FM281800 23008KT P6SM SCT250
     FM290100 15003KT P6SM SCT150
     FM290900 17008KT P6SM VCSH BKN040=



000
FTUS43 KGRR 281129
TAFBTL
TAF
KBTL 281129Z 2812/2912 14005KT P6SM SCT250=



000
FTUS43 KGRR 281129
TAFJXN
TAF
KJXN 281129Z 2812/2912 00000KT 1SM BR SKC
     FM281230 13005KT P6SM SCT250
     FM290800 00000KT 3SM BR BKN250=



000
FTUS43 KGRR 280903 AAA
TAFJXN
TAF AMD
KJXN 280903Z 2809/2906 VRB03KT P6SM VCFG SKC
      TEMPO 2809/2812 1SM BR
     FM281300 13005KT P6SM SCT250=



000
FTUS43 KGRR 280530
TAFJXN
TAF
KJXN 280530Z 2806/2906 VRB03KT P6SM VCFG SKC
      TEMPO 2808/2812 2SM BR
     FM281300 13005KT P6SM SCT250=



000
FTUS43 KGRR 280530
TAFBTL
TAF
KBTL 280530Z 2806/2906 VRB03KT P6SM VCFG SKC
     FM281300 14005KT P6SM SCT250=



000
FTUS43 KGRR 280530
TAFAZO
TAF
KAZO 280530Z 2806/2906 VRB03KT P6SM SKC
     FM281600 14006KT P6SM SCT250=



000
FTUS43 KGRR 280530
TAFGRR
TAF
KGRR 280530Z 2806/2906 VRB03KT P6SM SKC
     FM281600 14006KT P6SM SCT250=



000
FTUS43 KGRR 280530
TAFMKG
TAF
KMKG 280530Z 2806/2906 VRB03KT P6SM SKC
     FM281800 21008KT P6SM SCT250
     FM290100 VRB03KT P6SM SCT150=



000
FTUS43 KGRR 280530
TAFLAN
TAF
KLAN 280530Z 2806/2906 VRB03KT P6SM SKC
     FM281600 13006KT P6SM SCT250=



000
FTUS43 KGRR 272331
TAFLAN
TAF
KLAN 272331Z 2800/2824 VRB03KT P6SM SCT250
     FM281400 11007KT P6SM SCT250=



000
FTUS43 KGRR 272331
TAFJXN
TAF
KJXN 272331Z 2800/2824 VRB03KT P6SM SCT250
     FM281400 11007KT P6SM SCT250=



000
FTUS43 KGRR 272331
TAFAZO
TAF
KAZO 272331Z 2800/2824 VRB03KT P6SM SCT250
     FM281400 13007KT P6SM SCT250=



000
FTUS43 KGRR 272331
TAFGRR
TAF
KGRR 272331Z 2800/2824 09004KT P6SM SCT250
     FM281400 13007KT P6SM SCT250=



000
FTUS43 KGRR 272331
TAFMKG
TAF
KMKG 272331Z 2800/2824 VRB03KT P6SM SCT250
     FM281300 16008KT P6SM SCT250
     FM282000 30009KT P6SM BKN250=



000
FTUS43 KGRR 272331
TAFBTL
TAF
KBTL 272331Z 2800/2824 VRB03KT P6SM SCT250
     FM281400 12007KT P6SM SCT250=



000
FTUS43 KGRR 271720
TAFJXN
TAF
KJXN 271720Z 2718/2818 05007KT P6SM SCT250=



000
FTUS43 KGRR 271720
TAFLAN
TAF
KLAN 271720Z 2718/2818 06006KT P6SM SCT250=



000
FTUS43 KGRR 271720
TAFBTL
TAF
KBTL 271720Z 2718/2818 12005KT P6SM SCT250=



000
FTUS43 KGRR 271720
TAFGRR
TAF
KGRR 271720Z 2718/2818 12006KT P6SM SCT250=



000
FTUS43 KGRR 271720
TAFAZO
TAF
KAZO 271720Z 2718/2818 09006KT P6SM SCT250=



000
FTUS43 KGRR 271720
TAFMKG
TAF
KMKG 271720Z 2718/2818 26008KT P6SM SCT250
     FM280200 VRB03KT P6SM SCT250=



000
FTUS43 KGRR 271134
TAFAZO
TAF
KAZO 271134Z 2712/2812 09005KT P6SM SCT250=



000
FTUS43 KGRR 271134
TAFLAN
TAF
KLAN 271134Z 2712/2812 10005KT P6SM SCT250=



000
FTUS43 KGRR 271134
TAFJXN
TAF
KJXN 271134Z 2712/2812 10006KT P6SM SCT250=



000
FTUS43 KGRR 271134
TAFBTL
TAF
KBTL 271134Z 2712/2812 09006KT P6SM SCT250=



000
FTUS43 KGRR 271134
TAFAZO
TAF
KAZO 271134Z 2712/2812 09005KT P6SM SCT250=



000
FTUS43 KGRR 271134
TAFMKG
TAF
KMKG 271134Z 2712/2812 12004KT P6SM SCT250
     FM271600 27008KT P6SM SCT250
     FM280200 VRB03KT P6SM SCT250=



000
FTUS43 KGRR 271134
TAFGRR
TAF
KGRR 271134Z 2712/2812 10005KT P6SM SCT250=



000
FTUS43 KGRR 271134
TAFMKG
TAF
KMKG 271134Z 2712/2812 12004KT P6SM SCT250
     FM271600 27008KT P6SM SCT250
     FM280200 VRB03KT P6SM SCT250=



000
FTUS43 KGRR 271134
TAFLAN
TAF
KLAN 271134Z 2712/2812 10005KT P6SM SCT250=



000
FTUS43 KGRR 271134
TAFGRR
TAF
KGRR 271134Z 2712/2812 10005KT P6SM SCT250=



000
FTUS43 KGRR 271134
TAFBTL
TAF
KBTL 271134Z 2712/2812 09006KT P6SM SCT250=



000
FTUS43 KGRR 271134
TAFJXN
TAF
KJXN 271134Z 2712/2812 10006KT P6SM SCT250=



000
FTUS43 KGRR 270945 AAA
TAFJXN
TAF AMD
KJXN 270945Z 2710/2806 00000KT P6SM SKC
      TEMPO 2710/2713 4SM BR
     FM271300 VRB03KT P6SM SKC
     FM271600 11007KT P6SM FEW045=



000
FTUS43 KGRR 270944 AAB
TAFBTL
TAF AMD
KBTL 270944Z 2710/2806 00000KT P6SM SKC
      TEMPO 2710/2713 3SM BR
     FM271600 12007KT P6SM FEW045=



000
FTUS43 KGRR 270943 AAB
TAFAZO
TAF AMD
KAZO 270943Z 2710/2806 00000KT 2SM BR SKC
      TEMPO 2710/2712 1/2SM FG
     FM271200 00000KT P6SM SKC
      TEMPO 2712/2713 4SM BR
     FM271600 12007KT P6SM FEW045=



000
FTUS43 KGRR 270628 AAA
TAFBTL
TAF AMD
KBTL 270628Z 2706/2806 VRB03KT P6SM SKC
      TEMPO 2706/2708 1 1/2SM BR
     FM270800 VRB03KT 4SM BR SKC
      TEMPO 2708/2712 1 1/2SM BR
     FM271600 12007KT P6SM FEW045=



000
FTUS43 KGRR 270627 AAA
TAFAZO
TAF AMD
KAZO 270627Z 2706/2806 VRB03KT P6SM SKC
      TEMPO 2706/2708 1 1/2SM BR
     FM270800 VRB03KT 4SM BR SKC
      TEMPO 2710/2712 1 1/2SM BR
     FM271600 12007KT P6SM FEW045=



000
FTUS43 KGRR 270627 AAA
TAFAZO
TAF AMD
KAZO 270627Z 2706/2806 VRB03KT P6SM SKC
      TEMPO 2706/2708 1 1/2SM BR
     FM270800 VRB03KT 4SM BR SKC
      TEMPO 2710/2712 1 1/2SM BR
     FM271600 12007KT P6SM FEW045=



000
FTUS43 KGRR 270538
TAFAZO
TAF
KAZO 270538Z 2706/2806 VRB03KT P6SM SKC
     FM271600 12007KT P6SM FEW045=



000
FTUS43 KGRR 270538
TAFBTL
TAF
KBTL 270538Z 2706/2806 VRB03KT P6SM SKC
     FM271600 12007KT P6SM FEW045=



000
FTUS43 KGRR 270538
TAFJXN
TAF
KJXN 270538Z 2706/2806 VRB03KT P6SM SKC
     FM270700 VRB03KT 4SM BR SKC
      TEMPO 2708/2712 1SM BR
     FM271300 VRB03KT P6SM SKC
     FM271600 11007KT P6SM FEW045=



000
FTUS43 KGRR 270538
TAFGRR
TAF
KGRR 270538Z 2706/2806 VRB03KT P6SM SKC
     FM271600 12007KT P6SM FEW045=



000
FTUS43 KGRR 270538
TAFLAN
TAF
KLAN 270538Z 2706/2806 VRB03KT P6SM SKC
     FM271600 11007KT P6SM FEW045=



000
FTUS43 KGRR 270538
TAFMKG
TAF
KMKG 270538Z 2706/2806 VRB03KT P6SM SKC
     FM271600 26007KT P6SM SKC
     FM280100 VRB03KT P6SM SKC=



000
FTUS43 KGRR 262329
TAFGRR
TAF
KGRR 262329Z 2700/2724 12005KT P6SM BKN160
     FM270200 09003KT P6SM SKC=



000
FTUS43 KGRR 262329
TAFJXN
TAF
KJXN 262329Z 2700/2724 15008KT P6SM BKN200
     FM270400 00000KT P6SM SKC=



000
FTUS43 KGRR 262329
TAFLAN
TAF
KLAN 262329Z 2700/2724 08004KT P6SM BKN200
     FM270400 00000KT P6SM SKC=



000
FTUS43 KGRR 262329
TAFBTL
TAF
KBTL 262329Z 2700/2724 11005KT P6SM BKN150
     FM270200 10002KT P6SM SKC=



000
FTUS43 KGRR 262329
TAFMKG
TAF
KMKG 262329Z 2700/2724 32005KT P6SM BKN200
     FM270200 VRB03KT P6SM SKC
     FM272000 27007KT P6SM SKC=



000
FTUS43 KGRR 262329
TAFJXN
TAF
KJXN 262329Z 2700/2724 15008KT P6SM BKN200
     FM270400 00000KT P6SM SKC=



000
FTUS43 KGRR 262329
TAFAZO
TAF
KAZO 262329Z 2700/2724 10003KT P6SM BKN150
     FM270200 00000KT P6SM SKC=



000
FTUS43 KGRR 262329
TAFLAN
TAF
KLAN 262329Z 2700/2724 08004KT P6SM BKN200
     FM270400 00000KT P6SM SKC=



000
FTUS43 KGRR 262329
TAFAZO
TAF
KAZO 262329Z 2700/2724 10003KT P6SM BKN150
     FM270200 00000KT P6SM SKC=



000
FTUS43 KGRR 262329
TAFBTL
TAF
KBTL 262329Z 2700/2724 11005KT P6SM BKN150
     FM270200 10002KT P6SM SKC=



000
FTUS43 KGRR 262329
TAFMKG
TAF
KMKG 262329Z 2700/2724 32005KT P6SM BKN200
     FM270200 VRB03KT P6SM SKC
     FM272000 27007KT P6SM SKC=



000
FTUS43 KGRR 262138 AAA
TAFMKG
TAF AMD
KMKG 262138Z 2622/2718 33005KT P6SM BKN230
     FM270200 VRB03KT P6SM SKC=



000
FTUS43 KGRR 261720
TAFAZO
TAF
KAZO 261720Z 2618/2718 12006KT P6SM SCT040 BKN100 BKN250
     FM270200 00000KT P6SM SKC=



000
FTUS43 KGRR 261720
TAFBTL
TAF
KBTL 261720Z 2618/2718 12006KT P6SM SCT040 SCT100 BKN250
     FM270200 00000KT P6SM SKC=



000
FTUS43 KGRR 261720
TAFGRR
TAF
KGRR 261720Z 2618/2718 10006KT P6SM FEW040 SCT120 BKN250
     FM270300 15003KT P6SM FEW250=



000
FTUS43 KGRR 261720
TAFLAN
TAF
KLAN 261720Z 2618/2718 09005KT P6SM SCT040 SCT100 BKN250
     FM270400 00000KT P6SM SKC=



000
FTUS43 KGRR 261720
TAFMKG
TAF
KMKG 261720Z 2618/2718 06006KT P6SM BKN250
     FM270200 VRB03KT P6SM SKC=



000
FTUS43 KGRR 261720
TAFJXN
TAF
KJXN 261720Z 2618/2718 15008KT P6SM SCT040 SCT100 BKN250
     FM270400 00000KT P6SM SKC=



000
FTUS43 KGRR 261453 AAA
TAFMKG
TAF AMD
KMKG 261453Z 2615/2712 09004KT P6SM BKN250
     FM261600 26007KT P6SM BKN200
     FM270200 VRB03KT P6SM SKC=



000
FTUS43 KGRR 261453 AAA
TAFBTL
TAF AMD
KBTL 261453Z 2615/2712 11006KT P6SM BKN250
     FM270200 00000KT P6SM SKC=



000
FTUS43 KGRR 261453 AAA
TAFJXN
TAF AMD
KJXN 261453Z 2615/2712 14010KT P6SM BKN250
     FM270400 00000KT P6SM SKC=



000
FTUS43 KGRR 261453 AAA
TAFAZO
TAF AMD
KAZO 261453Z 2615/2712 09006KT P6SM BKN250
     FM270200 00000KT P6SM SKC=



000
FTUS43 KGRR 261453 AAA
TAFLAN
TAF AMD
KLAN 261453Z 2615/2712 11006KT P6SM BKN250
     FM270400 00000KT P6SM SKC=



000
FTUS43 KGRR 261453 AAA
TAFGRR
TAF AMD
KGRR 261453Z 2615/2712 08006KT P6SM FEW100 BKN250
     FM270300 15003KT P6SM FEW250=



000
FTUS43 KGRR 261137
TAFAZO
TAF
KAZO 261137Z 2612/2712 09005KT P6SM SCT250=



000
FTUS43 KGRR 261137
TAFGRR
TAF
KGRR 261137Z 2612/2712 09005KT P6SM SCT250=



000
FTUS43 KGRR 261137
TAFLAN
TAF
KLAN 261137Z 2612/2712 05005KT P6SM SCT050 SCT250=



000
FTUS43 KGRR 261137
TAFMKG
TAF
KMKG 261137Z 2612/2712 VRB03KT P6SM SCT250
     FM261600 26007KT P6SM BKN200
     FM270200 VRB03KT P6SM SKC=



000
FTUS43 KGRR 261137
TAFBTL
TAF
KBTL 261137Z 2612/2712 09005KT P6SM SCT050 SCT250=



000
FTUS43 KGRR 261137
TAFJXN
TAF
KJXN 261137Z 2612/2712 05005KT P6SM SCT050 SCT250
      TEMPO 2612/2613 5SM BR=



000
FTUS43 KGRR 260859 AAC
TAFJXN
TAF AMD
KJXN 260859Z 2609/2706 VRB03KT 3SM BR SKC
      TEMPO 2609/2612 1/4SM FG VV002
     FM261300 VRB03KT P6SM SKC
     FM261600 VRB04KT P6SM SCT045 SCT150=



000
FTUS43 KGRR 260842 AAB
TAFJXN
TAF AMD
KJXN 260842Z 2609/2706 VRB03KT 4SM BR SKC
      TEMPO 2609/2612 1 1/2SM BR VV002
     FM261300 VRB03KT P6SM SKC
     FM261600 VRB04KT P6SM SCT045 SCT150=



000
FTUS43 KGRR 260819 AAA
TAFAZO
TAF AMD
KAZO 260819Z 2608/2706 VRB03KT 4SM BR SKC
     FM261300 VRB03KT P6SM SKC
     FM261600 VRB04KT P6SM FEW045 SCT150=



000
FTUS43 KGRR 260653 AAA
TAFJXN
TAF AMD
KJXN 260653Z 2607/2706 VRB03KT 4SM BR SKC
      TEMPO 2607/2611 1 1/2SM BR
     FM261600 VRB04KT P6SM SCT045 SCT150=



000
FTUS43 KGRR 260529
TAFAZO
TAF
KAZO 260529Z 2606/2706 VRB03KT P6SM SKC
     FM261600 VRB04KT P6SM FEW045 SCT150=



000
FTUS43 KGRR 260529
TAFGRR
TAF
KGRR 260529Z 2606/2706 VRB03KT P6SM SKC
     FM261600 VRB04KT P6SM FEW045 SCT150=



000
FTUS43 KGRR 260529
TAFBTL
TAF
KBTL 260529Z 2606/2706 VRB03KT P6SM SKC
      TEMPO 2608/2612 4SM BR
     FM261600 VRB04KT P6SM SCT045 SCT150=



000
FTUS43 KGRR 260529
TAFJXN
TAF
KJXN 260529Z 2606/2706 VRB03KT P6SM SKC
      TEMPO 2608/2612 3SM BR
     FM261600 VRB04KT P6SM SCT045 SCT150=



000
FTUS43 KGRR 260529
TAFLAN
TAF
KLAN 260529Z 2606/2706 VRB03KT P6SM SKC
     FM261600 VRB04KT P6SM FEW045 SCT150=



000
FTUS43 KGRR 260529
TAFMKG
TAF
KMKG 260529Z 2606/2706 VRB03KT P6SM SKC
     FM261600 25007KT P6SM SCT150
     FM270100 VRB03KT P6SM SCT250=



000
FTUS43 KGRR 260529
TAFGRR
TAF
KGRR 260529Z 2606/2706 VRB03KT P6SM SKC
     FM261600 VRB04KT P6SM FEW045 SCT150=



000
FTUS43 KGRR 260529
TAFBTL
TAF
KBTL 260529Z 2606/2706 VRB03KT P6SM SKC
      TEMPO 2608/2612 4SM BR
     FM261600 VRB04KT P6SM SCT045 SCT150=



000
FTUS43 KGRR 260529
TAFJXN
TAF
KJXN 260529Z 2606/2706 VRB03KT P6SM SKC
      TEMPO 2608/2612 3SM BR
     FM261600 VRB04KT P6SM SCT045 SCT150=



000
FTUS43 KGRR 260529
TAFMKG
TAF
KMKG 260529Z 2606/2706 VRB03KT P6SM SKC
     FM261600 25007KT P6SM SCT150
     FM270100 VRB03KT P6SM SCT250=



000
FTUS43 KGRR 260529
TAFLAN
TAF
KLAN 260529Z 2606/2706 VRB03KT P6SM SKC
     FM261600 VRB04KT P6SM FEW045 SCT150=



    US Dept of Commerce
    National Oceanic and Atmospheric Administration
    National Weather Service
    1325 East West Highway
    Silver Spring, MD 20910
    Page Author: NWS Internet Services Team
Disclaimer
Information Quality
Credits
Glossary
Privacy Policy
Freedom of Information Act (FOIA)
About Us
Career Opportunities